Time;durP1;ratioP1;P1;durP2;ratioP2;P2;SDS_P1;SDS_P2;PMS_P1;PMS_P2;Temp;Humidity;BMP_temperature;BMP_pressure;BME280_temperature;BME280_humidity;BME280_pressure;Samples;Min_cycle;Max_cycle;Signal;HPM_P1;HPM_P2
2022/01/25 00:08:24;;;;;;;;;90.25;67.00;;;;;0.37;100.00;102912.03;5117389;27;45288;-83
2022/01/25 00:29:46;;;;;;;;;91.50;69.25;;;;;-0.07;100.00;102920.25;5098717;27;45326;-82
2022/01/25 00:32:13;;;;;;;;;84.00;64.25;;;;;-0.14;100.00;102921.91;5102951;27;45595;-82
2022/01/25 00:34:39;;;;;;;;;84.00;63.50;;;;;-0.16;100.00;102925.34;5096026;27;47187;-82
2022/01/25 00:37:04;;;;;;;;;82.00;61.75;;;;;-0.21;100.00;102927.03;5096564;27;44830;-82
2022/01/25 00:39:30;;;;;;;;;75.25;59.25;;;;;-0.25;100.00;102926.09;5096024;27;45432;-83
2022/01/25 00:41:56;;;;;;;;;79.25;63.00;;;;;-0.27;100.00;102927.84;5095126;27;45305;-82
2022/01/25 00:44:21;;;;;;;;;85.25;64.00;;;;;-0.29;100.00;102937.38;5096435;27;44912;-82
2022/01/25 00:46:48;;;;;;;;;83.50;61.25;;;;;-0.35;100.00;102932.06;5085343;27;44862;-82
2022/01/25 00:49:26;;;;;;;;;86.25;62.25;;;;;-0.38;100.00;102932.91;5077173;28;44811;-82
2022/01/25 00:54:28;;;;;;;;;73.75;58.00;;;;;-0.39;100.00;102940.72;5079215;27;45326;-82
2022/01/25 00:56:55;;;;;;;;;73.75;55.00;;;;;-0.40;100.00;102929.38;5077701;27;45378;-82
2022/01/25 00:59:24;;;;;;;;;66.50;54.00;;;;;-0.40;100.00;102933.75;5081613;28;44774;-82
2022/01/25 01:01:52;;;;;;;;;82.25;60.00;;;;;-0.42;100.00;102932.84;5080458;28;44868;-82
2022/01/25 01:04:18;;;;;;;;;75.75;55.25;;;;;-0.43;100.00;102926.75;5077695;27;45379;-83
2022/01/25 01:06:46;;;;;;;;;76.00;58.25;;;;;-0.44;100.00;102926.72;5082148;27;44907;-81
2022/01/25 01:09:13;;;;;;;;;77.33;57.33;;;;;-0.43;100.00;102931.09;5083672;27;44913;-82
2022/01/25 01:12:03;;;;;;;;;73.00;56.00;;;;;-0.40;100.00;102937.22;5083099;27;44824;-82
2022/01/25 01:14:51;;;;;;;;;73.33;58.67;;;;;-0.39;100.00;102938.97;5110984;27;45297;-83
2022/01/25 01:34:14;;;;;;;;;63.00;52.67;;;;;-0.18;100.00;102930.56;5094535;27;44801;-82
2022/01/25 01:39:30;;;;;;;;;65.00;53.00;;;;;-0.14;100.00;102932.38;5119136;27;44815;-82
2022/01/25 01:44:55;;;;;;;;;68.33;51.00;;;;;-0.15;100.00;102934.94;5120001;27;44718;-82
2022/01/25 01:47:26;;;;;;;;;73.00;55.00;;;;;-0.20;100.00;102934.00;5119911;27;45033;-82
2022/01/25 01:49:52;;;;;;;;;64.00;46.67;;;;;-0.18;100.00;102945.38;5123911;27;44847;-82
2022/01/25 01:52:18;;;;;;;;;70.67;53.33;;;;;-0.17;100.00;102945.38;5125661;27;44874;-82
2022/01/25 01:54:43;;;;;;;;;69.67;52.00;;;;;-0.15;100.00;102945.38;5121228;27;44827;-82
2022/01/25 01:57:09;;;;;;;;;76.67;55.33;;;;;-0.11;100.00;102947.19;5119664;27;45328;-82
2022/01/25 01:59:36;;;;;;;;;64.00;49.00;;;;;-0.13;100.00;102943.69;5119458;27;44850;-83
2022/01/25 02:02:02;;;;;;;;;67.00;49.00;;;;;-0.12;100.00;102943.69;5100997;27;45197;-81
2022/01/25 02:04:27;;;;;;;;;64.33;51.00;;;;;-0.07;100.00;102944.63;5119458;27;44920;-82
2022/01/25 02:06:53;;;;;;;;;74.67;52.33;;;;;0.00;100.00;102948.22;5099904;27;46909;-82
2022/01/25 02:09:19;;;;;;;;;61.67;48.67;;;;;0.04;100.00;102949.97;5100464;27;44868;-82
2022/01/25 02:11:44;;;;;;;;;64.33;47.00;;;;;0.08;100.00;102936.09;5119072;27;45362;-82
2022/01/25 02:14:13;;;;;;;;;67.00;52.00;;;;;0.16;100.00;102949.28;5119433;27;44881;-83
2022/01/25 02:24:39;;;;;;;;;68.00;51.00;;;;;0.31;100.00;102943.34;5119153;27;45305;-83
2022/01/25 02:27:05;;;;;;;;;65.33;47.67;;;;;0.35;100.00;102945.13;5100293;27;47949;-82
2022/01/25 02:29:31;;;;;;;;;69.67;50.00;;;;;0.36;100.00;102946.88;5119388;27;44808;-82
2022/01/25 02:31:57;;;;;;;;;63.67;48.00;;;;;0.36;100.00;102941.66;5119358;27;45329;-82
2022/01/25 02:34:23;;;;;;;;;67.33;51.00;;;;;0.37;100.00;102944.28;5118856;27;44873;-82
2022/01/25 02:36:56;;;;;;;;;73.67;51.67;;;;;0.36;100.00;102944.28;5118894;27;44988;-81
2022/01/25 02:39:22;;;;;;;;;62.00;43.00;;;;;0.31;100.00;102945.94;5118244;27;45294;-81
2022/01/25 02:41:47;;;;;;;;;63.67;50.00;;;;;0.27;100.00;102944.16;5119749;27;45264;-82
2022/01/25 02:44:18;;;;;;;;;54.33;44.33;;;;;0.22;100.00;102952.81;5123540;27;44900;-83
2022/01/25 02:49:09;;;;;;;;;69.00;49.33;;;;;0.15;100.00;102947.53;5121253;27;44721;-83
2022/01/25 02:51:40;;;;;;;;;61.33;50.33;;;;;0.13;100.00;102949.22;5121434;27;44815;-82
2022/01/25 02:54:08;;;;;;;;;53.00;44.33;;;;;0.16;100.00;102951.88;5122333;27;45188;-82
2022/01/25 02:56:35;;;;;;;;;53.00;44.00;;;;;0.11;100.00;102945.72;5120691;27;45341;-82
2022/01/25 02:59:00;;;;;;;;;55.33;46.67;;;;;0.05;100.00;102946.53;5100889;27;44804;-83
2022/01/25 03:01:28;;;;;;;;;67.00;47.00;;;;;0.04;100.00;102951.72;5100690;27;44779;-83
2022/01/25 03:03:54;;;;;;;;;66.00;46.33;;;;;0.07;100.00;102946.53;5119691;27;44859;-83
2022/01/25 03:06:23;;;;;;;;;67.67;49.00;;;;;0.10;100.00;102951.81;5119865;27;45212;-83
2022/01/25 03:08:50;;;;;;;;;63.00;48.33;;;;;0.10;100.00;102952.69;5101603;27;44799;-83
2022/01/25 03:11:18;;;;;;;;;65.67;47.00;;;;;0.09;100.00;102942.19;5120046;27;44850;-83
2022/01/25 03:13:52;;;;;;;;;57.00;43.33;;;;;0.07;100.00;102949.16;5125776;27;45379;-83
2022/01/25 03:21:57;;;;;;;;;64.67;48.00;;;;;0.06;100.00;102956.13;5036321;28;44695;-83
2022/01/25 03:24:24;;;;;;;;;63.00;47.00;;;;;0.10;100.00;102951.81;5018545;28;44927;-83
2022/01/25 03:26:49;;;;;;;;;66.00;48.00;;;;;0.09;100.00;102948.31;5035063;28;45527;-81
2022/01/25 03:29:15;;;;;;;;;68.33;48.33;;;;;0.12;100.00;102939.63;5034394;28;44846;-82
2022/01/25 03:31:40;;;;;;;;;62.00;43.67;;;;;0.11;100.00;102941.38;5037010;28;44765;-80
2022/01/25 03:34:06;;;;;;;;;68.67;46.67;;;;;0.12;100.00;102937.91;5040972;28;45297;-81
2022/01/25 03:36:31;;;;;;;;;55.00;46.00;;;;;0.09;100.00;102929.13;5041171;28;45244;-82
2022/01/25 03:38:57;;;;;;;;;70.67;50.33;;;;;0.10;100.00;102938.75;5024773;28;44793;-82
2022/01/25 03:41:23;;;;;;;;;62.67;43.33;;;;;0.06;100.00;102935.22;5034418;28;45338;-82
2022/01/25 03:43:55;;;;;;;;;69.67;50.33;;;;;0.07;100.00;102933.47;5041536;28;45376;-82
2022/01/25 03:51:42;;;;;;;;;64.33;50.67;;;;;0.15;100.00;102922.25;5040981;28;45498;-82
2022/01/25 03:54:07;;;;;;;;;59.00;39.67;;;;;0.17;100.00;102924.88;5035254;28;44927;-81
2022/01/25 03:56:33;;;;;;;;;61.00;45.67;;;;;0.18;100.00;102927.50;5067007;27;45390;-82
2022/01/25 03:58:59;;;;;;;;;49.67;42.00;;;;;0.22;100.00;102921.47;5097216;27;44740;-83
2022/01/25 04:01:25;;;;;;;;;64.00;45.33;;;;;0.27;100.00;102908.44;5097170;27;45433;-82
2022/01/25 04:03:59;;;;;;;;;63.67;48.00;;;;;0.30;100.00;102905.88;5096732;27;44833;-82
2022/01/25 04:06:29;;;;;;;;;67.00;51.00;;;;;0.33;100.00;102905.88;5082208;27;46962;-82
2022/01/25 04:08:54;;;;;;;;;57.33;45.00;;;;;0.33;100.00;102911.09;5107819;27;44729;-82
2022/01/25 04:11:20;;;;;;;;;67.67;50.33;;;;;0.34;100.00;102917.22;5116999;27;44775;-83
2022/01/25 04:13:45;;;;;;;;;70.67;49.67;;;;;0.38;100.00;102922.50;5118397;27;44872;-83
2022/01/25 04:16:17;;;;;;;;;66.00;49.33;;;;;0.39;100.00;102918.16;5099869;27;45049;-82
2022/01/25 04:18:58;;;;;;;;;62.67;43.67;;;;;0.39;100.00;102923.41;5106946;27;45430;-82
2022/01/25 04:21:46;;;;;;;;;65.33;52.00;;;;;0.41;100.00;102919.91;5121136;27;45311;-82
2022/01/25 04:26:57;;;;;;;;;60.33;47.33;;;;;0.38;100.00;102929.47;5118303;27;45317;-83
2022/01/25 04:29:24;;;;;;;;;54.33;43.67;;;;;0.38;100.00;102932.06;5118164;27;44823;-83
2022/01/25 04:31:50;;;;;;;;;68.33;50.33;;;;;0.36;100.00;102921.63;5116825;27;45307;-82
2022/01/25 04:50:16;;;;;;;;;69.00;52.33;;;;;0.29;100.00;102934.59;5104086;27;44714;-82
2022/01/25 04:53:00;;;;;;;;;68.00;55.00;;;;;0.26;100.00;102945.91;5103237;27;44973;-80
2022/01/25 04:55:34;;;;;;;;;71.33;56.33;;;;;0.15;100.00;102942.28;5102311;27;44632;-81
2022/01/25 04:58:07;;;;;;;;;70.00;51.67;;;;;0.10;100.00;102942.25;5100387;27;45302;-80
2022/01/25 05:00:33;;;;;;;;;72.67;52.67;;;;;0.15;100.00;102948.41;5098959;27;45395;-80
2022/01/25 05:03:10;;;;;;;;;70.67;52.67;;;;;0.23;100.00;102945.84;5099446;27;44775;-80
2022/01/25 05:05:41;;;;;;;;;69.67;48.33;;;;;0.30;100.00;102944.22;5099349;27;44806;-81
2022/01/25 05:08:27;;;;;;;;;66.33;47.00;;;;;0.40;100.00;102941.69;5098994;27;45205;-79
2022/01/25 05:11:10;;;;;;;;;70.67;49.67;;;;;0.50;100.00;102943.56;5098977;27;45300;-81
2022/01/25 05:16:32;;;;;;;;;68.33;51.67;;;;;0.67;100.00;102932.38;5099216;27;44838;-80
2022/01/25 05:24:19;;;;;;;;;69.00;52.33;;;;;0.82;100.00;102937.72;5099854;27;44698;-80
2022/01/25 05:26:47;;;;;;;;;72.67;51.33;;;;;0.80;100.00;102941.22;5102236;27;44991;-80
2022/01/25 05:29:12;;;;;;;;;69.00;50.67;;;;;0.81;100.00;102937.72;5105467;27;45087;-78
2022/01/25 05:31:39;;;;;;;;;79.00;56.33;;;;;0.87;100.00;102932.53;5099858;27;45242;-80
2022/01/25 05:34:09;;;;;;;;;75.00;55.33;;;;;0.88;100.00;102931.72;5099441;27;44772;-81
2022/01/25 05:36:36;;;;;;;;;67.67;52.67;;;;;0.88;100.00;102942.16;5098873;27;44831;-80
2022/01/25 05:39:10;;;;;;;;;68.00;52.00;;;;;0.85;100.00;102939.50;5099306;27;45497;-80
2022/01/25 05:41:36;;;;;;;;;68.67;52.33;;;;;0.81;100.00;102943.84;5099231;27;44764;-81
2022/01/25 05:47:03;;;;;;;;;70.67;54.33;;;;;0.83;100.00;102941.25;5100892;27;44667;-81
2022/01/25 05:49:28;;;;;;;;;69.67;53.00;;;;;0.86;100.00;102944.75;5101210;27;45270;-82
2022/01/25 05:51:53;;;;;;;;;67.67;50.67;;;;;0.90;100.00;102949.16;5101785;27;45280;-79
2022/01/25 05:54:19;;;;;;;;;66.00;50.33;;;;;0.94;100.00;102942.22;5101742;27;44669;-80
2022/01/25 05:56:44;;;;;;;;;73.67;54.00;;;;;0.99;100.00;102944.00;5099377;27;44859;-81
2022/01/25 05:59:09;;;;;;;;;70.33;52.00;;;;;1.05;100.00;102937.94;5098918;27;45094;-80
2022/01/25 06:01:35;;;;;;;;;67.33;52.67;;;;;1.10;100.00;102945.81;5085433;27;44742;-81
2022/01/25 06:04:01;;;;;;;;;64.33;50.67;;;;;1.14;100.00;102945.88;5105115;27;45387;-81
2022/01/25 06:06:28;;;;;;;;;68.33;52.00;;;;;1.15;100.00;102934.53;5105791;27;45630;-82
2022/01/25 06:08:55;;;;;;;;;73.00;51.67;;;;;1.18;100.00;102931.94;5099268;27;45248;-81
2022/01/25 06:11:21;;;;;;;;;71.67;51.33;;;;;1.19;100.00;102925.81;5098529;27;45449;-82
2022/01/25 06:13:47;;;;;;;;;74.67;54.67;;;;;1.21;100.00;102926.72;5098173;27;45241;-82
2022/01/25 06:16:12;;;;;;;;;71.67;51.33;;;;;1.23;100.00;102927.59;5080494;27;45026;-82
2022/01/25 06:18:37;;;;;;;;;67.67;51.33;;;;;1.25;100.00;102922.38;5098441;27;45326;-81
2022/01/25 06:21:03;;;;;;;;;71.33;52.67;;;;;1.30;100.00;102925.91;5079975;27;44872;-82
2022/01/25 06:23:28;;;;;;;;;64.67;52.00;;;;;1.31;100.00;102927.69;5098407;27;44913;-80
2022/01/25 06:25:54;;;;;;;;;71.67;54.33;;;;;1.33;100.00;102936.41;5079539;27;45565;-81
2022/01/25 06:28:19;;;;;;;;;78.67;56.00;;;;;1.35;100.00;102931.16;5098322;27;44930;-81
2022/01/25 06:30:45;;;;;;;;;80.00;58.33;;;;;1.36;100.00;102932.94;5098196;27;45626;-82
2022/01/25 06:33:10;;;;;;;;;72.33;51.67;;;;;1.35;100.00;102934.66;5098152;27;44798;-82
2022/01/25 06:35:36;;;;;;;;;70.67;55.00;;;;;1.40;100.00;102940.84;5098676;27;44805;-82
2022/01/25 06:38:03;;;;;;;;;72.67;52.00;;;;;1.44;100.00;102941.69;5098268;27;45092;-81
2022/01/25 06:40:28;;;;;;;;;72.67;53.33;;;;;1.42;100.00;102943.44;5101018;27;45407;-83
2022/01/25 06:42:54;;;;;;;;;67.67;53.00;;;;;1.43;100.00;102943.44;5105183;27;44835;-81
2022/01/25 06:45:22;;;;;;;;;77.33;57.00;;;;;1.42;100.00;102933.84;5102164;27;44815;-81
2022/01/25 06:47:49;;;;;;;;;63.00;50.67;;;;;1.42;100.00;102932.97;5099311;27;45535;-82
2022/01/25 06:50:15;;;;;;;;;73.00;52.67;;;;;1.40;100.00;102935.59;5098374;27;45264;-82
2022/01/25 06:52:42;;;;;;;;;72.33;55.67;;;;;1.36;100.00;102925.97;5099151;27;45339;-82
2022/01/25 06:55:11;;;;;;;;;72.00;57.00;;;;;1.38;100.00;102933.81;5099045;27;45346;-79
2022/01/25 06:57:37;;;;;;;;;76.33;56.00;;;;;1.37;100.00;102930.31;5098265;27;45303;-82
2022/01/25 07:00:09;;;;;;;;;77.67;54.00;;;;;1.34;100.00;102926.81;5097851;27;44872;-82
2022/01/25 07:02:35;;;;;;;;;78.00;56.00;;;;;1.30;100.00;102931.13;5099475;27;45416;-82
2022/01/25 07:05:01;;;;;;;;;72.00;55.00;;;;;1.26;100.00;102935.50;5097326;27;45505;-81
2022/01/25 07:07:26;;;;;;;;;72.00;56.00;;;;;1.27;100.00;102939.88;5097258;27;45085;-83
2022/01/25 07:09:52;;;;;;;;;74.67;56.33;;;;;1.31;100.00;102939.91;5097551;27;45273;-82
2022/01/25 07:12:17;;;;;;;;;73.33;56.00;;;;;1.33;100.00;102936.41;5075224;28;45417;-82
2022/01/25 07:14:43;;;;;;;;;76.00;54.67;;;;;1.36;100.00;102936.44;5077246;28;44863;-84
2022/01/25 07:17:09;;;;;;;;;75.33;56.67;;;;;1.38;100.00;102941.66;5076578;28;45099;-81
2022/01/25 07:19:34;;;;;;;;;73.00;55.33;;;;;1.39;100.00;102938.19;5079358;28;44749;-82
2022/01/25 07:21:59;;;;;;;;;63.67;53.33;;;;;1.40;100.00;102948.69;5083310;28;44807;-82
2022/01/25 07:24:25;;;;;;;;;77.67;56.00;;;;;1.40;100.00;102942.53;5081041;27;44935;-81
2022/01/25 07:26:50;;;;;;;;;76.00;57.00;;;;;1.41;100.00;102941.69;5082542;28;45152;-82
2022/01/25 07:29:16;;;;;;;;;77.67;55.00;;;;;1.42;100.00;102951.31;5077223;28;45430;-82
2022/01/25 07:31:44;;;;;;;;;78.00;53.33;;;;;1.38;100.00;102958.25;5077308;28;44748;-82
2022/01/25 07:34:10;;;;;;;;;72.00;54.33;;;;;1.38;100.00;102966.13;5076982;27;44860;-81
2022/01/25 07:36:37;;;;;;;;;73.67;56.00;;;;;1.42;100.00;102973.13;5076455;28;45102;-82
2022/01/25 07:39:03;;;;;;;;;80.33;55.33;;;;;1.51;100.00;102967.97;5076373;28;44836;-82
2022/01/25 07:41:29;;;;;;;;;84.33;56.67;;;;;1.54;100.00;102962.72;5076785;28;45318;-81
2022/01/25 07:43:55;;;;;;;;;76.00;54.67;;;;;1.54;100.00;102961.84;5075590;27;45405;-80
2022/01/25 07:46:21;;;;;;;;;73.67;54.33;;;;;1.50;100.00;102960.97;5076776;28;45250;-83
2022/01/25 07:48:46;;;;;;;;;77.33;55.67;;;;;1.46;100.00;102958.31;5077879;27;45329;-83
2022/01/25 07:51:11;;;;;;;;;73.00;56.00;;;;;1.41;100.00;102965.28;5077856;27;44775;-82
2022/01/25 07:53:39;;;;;;;;;76.67;56.00;;;;;1.40;100.00;102973.97;5080592;28;44785;-82
2022/01/25 07:56:04;;;;;;;;;59.00;41.00;;;;;1.40;100.00;102969.63;5079957;28;46484;-81
2022/01/25 07:58:30;;;;;;;;;68.33;54.00;;;;;1.47;100.00;102976.66;5080094;28;44784;-79
2022/01/25 08:00:55;;;;;;;;;67.33;51.00;;;;;1.52;100.00;102976.69;5087152;28;45164;-83
2022/01/25 08:03:22;;;;;;;;;69.33;51.67;;;;;1.53;100.00;102975.81;5087763;28;45378;-84
2022/01/25 08:05:50;;;;;;;;;71.33;53.67;;;;;1.54;100.00;102978.44;5078337;28;46690;-84
2022/01/25 08:08:16;;;;;;;;;70.67;54.00;;;;;1.58;100.00;102976.72;5078180;28;44743;-83
2022/01/25 08:10:41;;;;;;;;;66.67;50.33;;;;;1.56;100.00;102983.69;5078721;28;45273;-82
2022/01/25 08:13:07;;;;;;;;;71.67;55.00;;;;;1.51;100.00;102978.44;5096811;27;45300;-83
2022/01/25 08:15:32;;;;;;;;;67.33;50.67;;;;;1.38;100.00;102979.22;5097170;27;45539;-83
2022/01/25 08:17:58;;;;;;;;;73.00;54.00;;;;;1.37;100.00;102989.69;5078328;27;45281;-83
2022/01/25 08:20:23;;;;;;;;;70.33;48.33;;;;;1.38;100.00;102994.91;5097619;27;45294;-83
2022/01/25 08:22:50;;;;;;;;;68.33;53.00;;;;;1.39;100.00;102987.94;5096700;27;44801;-82
2022/01/25 08:25:17;;;;;;;;;70.33;53.33;;;;;1.31;100.00;102987.91;5097884;27;45176;-81
2022/01/25 08:27:42;;;;;;;;;66.00;52.33;;;;;1.36;100.00;102990.56;5079415;27;45405;-84
2022/01/25 08:30:08;;;;;;;;;76.33;57.00;;;;;1.37;100.00;102997.53;5099901;27;44905;-83
2022/01/25 08:32:34;;;;;;;;;63.00;48.67;;;;;1.39;100.00;102993.19;5099986;27;45437;-83
2022/01/25 08:34:59;;;;;;;;;77.33;57.33;;;;;1.46;100.00;102990.63;5100012;27;45485;-83
2022/01/25 08:37:25;;;;;;;;;69.33;53.00;;;;;1.54;100.00;102999.38;5082007;27;44815;-83
2022/01/25 08:39:51;;;;;;;;;74.33;51.67;;;;;1.54;100.00;102988.03;5083078;27;44777;-83
2022/01/25 08:42:17;;;;;;;;;70.33;51.67;;;;;1.61;100.00;102997.72;5105344;27;44728;-83
2022/01/25 08:44:42;;;;;;;;;66.67;51.33;;;;;1.67;100.00;102991.63;5108203;27;44937;-84
2022/01/25 08:47:09;;;;;;;;;67.00;48.67;;;;;1.70;100.00;102996.91;5101192;27;45328;-83
2022/01/25 08:49:35;;;;;;;;;66.33;53.67;;;;;1.68;100.00;102986.38;5101007;27;45379;-81
2022/01/25 08:52:01;;;;;;;;;74.33;53.33;;;;;1.68;100.00;102986.38;5100567;27;44903;-81
2022/01/25 08:54:26;;;;;;;;;66.00;49.33;;;;;1.61;100.00;102986.34;5100398;27;45307;-80
2022/01/25 08:56:53;;;;;;;;;77.67;55.67;;;;;1.65;100.00;102986.38;5064122;27;45270;-81
2022/01/25 08:59:19;;;;;;;;;71.67;54.00;;;;;1.71;100.00;102985.53;5099663;27;45314;-81
2022/01/25 09:01:44;;;;;;;;;78.33;55.67;;;;;1.79;100.00;102989.97;5081154;27;44929;-82
2022/01/25 09:04:10;;;;;;;;;61.33;49.33;;;;;1.76;100.00;102983.81;5099390;27;45601;-80
2022/01/25 09:06:35;;;;;;;;;68.00;49.67;;;;;1.72;100.00;102984.66;5099307;27;45277;-80
2022/01/25 09:09:04;;;;;;;;;71.67;55.00;;;;;1.71;100.00;102993.41;5080746;27;45390;-82
2022/01/25 09:11:30;;;;;;;;;79.67;54.67;;;;;1.72;100.00;102996.03;5099362;27;44979;-82
2022/01/25 09:13:55;;;;;;;;;66.67;52.67;;;;;1.70;100.00;102995.16;5098721;27;45417;-81
2022/01/25 09:16:21;;;;;;;;;70.00;53.67;;;;;1.75;100.00;102995.19;5080564;27;44874;-81
2022/01/25 09:18:46;;;;;;;;;68.67;51.67;;;;;1.79;100.00;102996.97;5099456;27;44827;-81
2022/01/25 09:21:11;;;;;;;;;66.67;49.00;;;;;1.83;100.00;103003.06;5099033;27;44897;-81
2022/01/25 09:23:37;;;;;;;;;72.00;52.67;;;;;1.87;100.00;102996.97;5081936;27;45284;-81
2022/01/25 09:26:03;;;;;;;;;73.67;52.33;;;;;1.86;100.00;102990.88;5086875;27;44784;-82
2022/01/25 09:28:29;;;;;;;;;70.33;51.33;;;;;1.86;100.00;103000.47;5115459;27;44891;-83
2022/01/25 09:30:54;;;;;;;;;68.67;53.00;;;;;1.87;100.00;103008.34;5120173;27;45291;-81
2022/01/25 09:33:21;;;;;;;;;71.00;53.00;;;;;1.93;100.00;103004.88;5119308;27;44933;-80
2022/01/25 09:35:47;;;;;;;;;73.67;54.33;;;;;1.93;100.00;103002.25;5118933;27;45488;-81
2022/01/25 09:38:12;;;;;;;;;70.00;52.00;;;;;1.95;100.00;102998.78;5119608;27;44812;-81
2022/01/25 09:40:38;;;;;;;;;72.67;52.33;;;;;1.99;100.00;103003.19;5118941;27;44800;-79
2022/01/25 09:43:03;;;;;;;;;63.67;50.67;;;;;2.00;100.00;103006.66;5119267;27;45088;-81
2022/01/25 09:45:29;;;;;;;;;49.00;42.00;;;;;1.97;100.00;103010.13;5118773;27;44874;-83
2022/01/25 09:47:55;;;;;;;;;77.33;53.33;;;;;1.99;100.00;103010.16;5089446;27;44819;-81
2022/01/25 09:50:22;;;;;;;;;71.67;53.67;;;;;2.03;100.00;103006.66;5122629;27;45244;-82
2022/01/25 09:52:47;;;;;;;;;70.00;51.33;;;;;2.13;100.00;103011.13;5121940;27;45046;-82
2022/01/25 09:55:28;;;;;;;;;64.00;51.33;;;;;2.25;100.00;103012.91;5120233;27;44899;-82
2022/01/25 09:57:53;;;;;;;;;68.33;53.33;;;;;2.29;100.00;103012.94;5117435;27;45337;-82
2022/01/25 10:00:22;;;;;;;;;78.00;52.33;;;;;2.36;100.00;103012.94;5100959;27;45505;-82
2022/01/25 10:05:44;;;;;;;;;60.67;48.67;;;;;2.42;100.00;103012.94;5113586;27;45259;-82
2022/01/25 10:08:10;;;;;;;;;57.67;44.33;;;;;2.47;100.00;103012.13;5119381;27;44759;-82
2022/01/25 10:10:44;;;;;;;;;73.67;52.67;;;;;2.54;100.00;103010.38;5123563;27;45354;-82
2022/01/25 10:13:12;;;;;;;;;73.00;56.33;;;;;2.55;100.00;103009.50;5119176;27;45059;-82
2022/01/25 10:15:38;;;;;;;;;71.00;49.33;;;;;2.51;100.00;103016.47;5119199;27;44690;-81
2022/01/25 10:18:07;;;;;;;;;64.00;44.33;;;;;2.52;100.00;103014.75;5118719;27;44741;-82
2022/01/25 10:20:40;;;;;;;;;74.33;52.00;;;;;2.52;100.00;103018.25;5119627;27;44859;-82
2022/01/25 10:23:10;;;;;;;;;63.00;48.00;;;;;2.52;100.00;103014.75;5101034;27;45536;-81
2022/01/25 10:25:43;;;;;;;;;64.00;44.33;;;;;2.52;100.00;103014.75;5119727;27;45403;-81
2022/01/25 10:28:12;;;;;;;;;72.67;52.67;;;;;2.53;100.00;103022.63;5103352;27;44752;-83
2022/01/25 10:30:54;;;;;;;;;66.67;47.67;;;;;2.55;100.00;103018.25;5101206;27;45573;-82
2022/01/25 10:33:38;;;;;;;;;70.00;50.00;;;;;2.51;100.00;103019.09;5118760;27;45240;-81
2022/01/25 10:36:19;;;;;;;;;61.33;43.33;;;;;2.46;100.00;103023.47;5118827;27;44862;-82
2022/01/25 10:38:48;;;;;;;;;66.00;49.00;;;;;2.44;100.00;103025.22;5121636;27;44765;-85
2022/01/25 10:41:23;;;;;;;;;65.33;50.67;;;;;2.41;100.00;103022.56;5120124;27;45357;-85
2022/01/25 10:43:50;;;;;;;;;61.00;44.33;;;;;2.45;100.00;103024.34;5100267;27;45318;-85
2022/01/25 10:46:18;;;;;;;;;64.33;46.00;;;;;2.56;100.00;103019.13;5120786;27;44788;-85
2022/01/25 10:48:52;;;;;;;;;70.33;50.67;;;;;2.53;100.00;103019.13;5105906;27;44779;-86
2022/01/25 10:51:25;;;;;;;;;62.50;49.00;;;;;2.44;100.00;103021.72;5105392;27;45311;-85
2022/01/25 10:54:05;;;;;;;;;66.67;49.00;;;;;2.45;100.00;103026.09;5124841;27;45480;-85
2022/01/25 10:56:39;;;;;;;;;72.33;54.00;;;;;2.57;100.00;103026.16;5101237;27;45321;-84
2022/01/25 10:59:07;;;;;;;;;63.33;45.33;;;;;2.68;100.00;103028.78;5121599;27;44883;-84
2022/01/25 11:01:39;;;;;;;;;64.33;49.33;;;;;2.79;100.00;103024.44;5102857;27;44931;-84
2022/01/25 11:04:14;;;;;;;;;59.33;49.33;;;;;2.82;100.00;103016.59;5120510;27;44961;-84
2022/01/25 11:06:41;;;;;;;;;71.00;51.33;;;;;2.87;100.00;103019.22;5123064;27;44792;-84
2022/01/25 11:09:10;;;;;;;;;73.67;54.00;;;;;2.82;100.00;103017.47;5120405;27;44864;-86
2022/01/25 11:11:47;;;;;;;;;70.33;53.00;;;;;2.84;100.00;103013.06;5096233;27;44868;-86
2022/01/25 11:16:58;;;;;;;;;68.67;51.33;;;;;2.86;100.00;103002.59;5100667;27;44695;-83
2022/01/25 11:19:25;;;;;;;;;73.33;54.33;;;;;2.93;100.00;103012.22;5098555;27;45302;-85
2022/01/25 11:21:52;;;;;;;;;65.33;50.33;;;;;3.00;100.00;103010.50;5098538;27;44973;-85
2022/01/25 11:24:19;;;;;;;;;72.67;52.33;;;;;3.08;100.00;103009.59;5097807;27;45172;-85
2022/01/25 11:26:46;;;;;;;;;55.00;47.67;;;;;3.09;100.00;103006.13;5096381;27;44874;-86
2022/01/25 11:29:12;;;;;;;;;72.00;54.33;;;;;3.06;100.00;103007.88;5098682;27;45133;-85
2022/01/25 11:31:41;;;;;;;;;79.00;54.67;;;;;3.10;100.00;103012.25;5099516;27;44813;-85
2022/01/25 11:34:11;;;;;;;;;75.00;54.33;;;;;3.17;100.00;103015.75;5100597;27;45401;-85
2022/01/25 11:36:55;;;;;;;;;77.33;58.00;;;;;3.13;100.00;103014.00;5105785;27;44633;-85
2022/01/25 11:39:23;;;;;;;;;73.67;57.00;;;;;2.74;100.00;103015.69;5101040;27;44800;-85
2022/01/25 11:41:49;;;;;;;;;66.67;53.33;;;;;2.55;100.00;103022.63;5096872;27;45535;-86
2022/01/25 11:44:21;;;;;;;;;64.00;48.00;;;;;2.36;100.00;103015.56;5101057;27;45019;-86
2022/01/25 11:46:54;;;;;;;;;73.00;51.33;;;;;2.38;100.00;103021.72;5117805;27;44841;-85
2022/01/25 11:49:21;;;;;;;;;83.00;63.00;;;;;2.42;100.00;103012.94;5088109;27;45342;-83
2022/01/25 11:52:13;;;;;;;;;78.67;60.67;;;;;2.52;100.00;103012.13;5098119;27;45160;-83
2022/01/25 11:54:40;;;;;;;;;73.67;54.00;;;;;2.66;100.00;103007.81;5089812;27;45458;-83
2022/01/25 11:57:22;;;;;;;;;73.33;53.67;;;;;2.83;100.00;103006.06;5076678;28;45245;-83
2022/01/25 11:59:57;;;;;;;;;76.67;54.67;;;;;2.90;100.00;103004.38;5089638;27;45392;-83
2022/01/25 12:02:34;;;;;;;;;74.00;53.67;;;;;2.94;100.00;102994.72;5095509;27;45466;-84
2022/01/25 12:05:05;;;;;;;;;75.00;58.00;;;;;3.05;100.00;103000.88;5097427;27;45835;-83
2022/01/25 12:07:38;;;;;;;;;79.00;57.67;;;;;3.11;100.00;102998.25;5097526;27;44816;-83
2022/01/25 12:10:24;;;;;;;;;71.00;56.33;;;;;2.94;100.00;102992.97;5095269;27;44770;-82
2022/01/25 12:13:25;;;;;;;;;80.33;59.67;;;;;2.74;100.00;102994.69;5113592;27;45386;-83
2022/01/25 12:16:22;;;;;;;;;78.33;57.00;;;;;2.50;100.00;102998.13;5117180;27;45251;-84
2022/01/25 12:18:57;;;;;;;;;77.33;57.00;;;;;2.31;100.00;102999.81;5105671;27;44872;-83
2022/01/25 12:21:45;;;;;;;;;73.00;55.00;;;;;2.26;100.00;103005.03;5122496;27;45320;-83
2022/01/25 12:25:19;;;;;;;;;71.00;55.67;;;;;2.26;100.00;102996.28;5119353;27;44855;-83
2022/01/25 12:27:48;;;;;;;;;75.00;55.33;;;;;2.48;100.00;102992.00;5116837;27;45487;-83
2022/01/25 12:30:40;;;;;;;;;74.33;57.33;;;;;2.57;100.00;102984.16;5116837;27;45345;-83
2022/01/25 12:33:24;;;;;;;;;83.33;56.00;;;;;2.76;100.00;102983.34;5103465;27;45491;-83
2022/01/25 12:35:54;;;;;;;;;76.00;56.33;;;;;2.97;100.00;102969.34;5117060;27;45374;-82
2022/01/25 12:38:38;;;;;;;;;68.67;54.00;;;;;3.13;100.00;102980.72;5098570;27;45545;-83
2022/01/25 12:41:13;;;;;;;;;67.67;54.33;;;;;3.18;100.00;102971.09;5117917;27;45455;-83
2022/01/25 12:43:47;;;;;;;;;69.00;50.33;;;;;3.28;100.00;102962.31;5118864;27;44883;-83
2022/01/25 12:46:20;;;;;;;;;79.33;57.67;;;;;3.32;100.00;102969.34;5117955;27;44819;-82
2022/01/25 12:48:49;;;;;;;;;73.33;53.00;;;;;3.38;100.00;102960.56;5121927;27;45081;-83
2022/01/25 12:51:19;;;;;;;;;74.67;54.67;;;;;3.42;100.00;102956.19;5125610;27;44839;-83
2022/01/25 12:53:48;;;;;;;;;71.00;51.00;;;;;3.38;100.00;102950.06;5103578;27;44774;-83
2022/01/25 12:56:28;;;;;;;;;75.33;53.33;;;;;3.43;100.00;102961.44;5112952;27;44868;-81
2022/01/25 12:59:03;;;;;;;;;68.50;51.50;;;;;3.46;100.00;102961.44;5104414;27;45402;-83
2022/01/25 13:01:28;;;;;;;;;77.67;54.00;;;;;3.44;100.00;102957.09;5099599;27;45244;-83
2022/01/25 13:03:57;;;;;;;;;74.00;57.00;;;;;3.30;100.00;102951.84;5105092;27;44689;-83
2022/01/25 13:06:26;;;;;;;;;70.33;54.00;;;;;3.38;100.00;102949.19;5102832;27;45324;-84